Guaruja, Brazil
Current Conditions -  °F | °C
As of 2:00 AM on Friday 19 Dec 2014 (Local Time) from SBSP Reporting Station
Clear Clear  
Wind Chill: 68°   Ceiling: Unl
Heat Index: 68°   Visibility: 6mi
Dew Point: 59°   Wind: 6mph
Humidity: 73%   Direction: 190°S
Pressure: 29.94"   Gusts: NA
Location:  24°S, 46.27°W
Report Text: SBSP 190400Z 19005KT CAVOK 20/15 Q1014
Loading
Personal Weather Stations






























Interactive Weather Map New forecast layout! Learn more

10-Day Weather Forecast

Advertisements
Track Severe Weather on mobile